createdAt,value
2018-09-24T00:00:18.831Z,4.30
2018-09-24T00:02:46.173Z,3.93
2018-09-24T00:05:13.492Z,3.70
2018-09-24T00:07:40.796Z,3.83
2018-09-24T00:10:08.165Z,4.50
2018-09-24T00:12:35.487Z,4.17
2018-09-24T00:15:02.792Z,4.40
2018-09-24T00:17:30.172Z,5.13
2018-09-24T00:19:57.455Z,4.70
2018-09-24T00:22:24.763Z,7.83
2018-09-24T00:24:52.107Z,5.37
2018-09-24T00:27:19.756Z,5.50
2018-09-24T00:29:47.092Z,9.23
2018-09-24T00:32:14.397Z,5.00
2018-09-24T00:34:41.731Z,5.30
2018-09-24T00:37:09.052Z,5.33
2018-09-24T00:39:36.365Z,5.30
2018-09-24T00:42:03.720Z,4.90
2018-09-24T00:44:31.044Z,4.80
2018-09-24T00:46:58.347Z,5.37
2018-09-24T00:49:25.704Z,5.10
2018-09-24T00:51:53.080Z,6.23
2018-09-24T00:54:20.439Z,5.00
2018-09-24T00:56:47.788Z,5.30
2018-09-24T00:59:15.106Z,4.20
2018-09-24T01:01:42.413Z,5.10
2018-09-24T01:04:09.752Z,4.70
2018-09-24T01:06:37.067Z,5.60
2018-09-24T01:09:06.541Z,6.17
2018-09-24T01:11:33.867Z,4.40
2018-09-24T01:14:01.186Z,5.13
2018-09-24T01:16:28.505Z,5.07
2018-09-24T01:18:55.840Z,5.07
2018-09-24T01:21:23.189Z,7.00
2018-09-24T01:23:50.543Z,5.70
2018-09-24T01:26:17.903Z,6.30
2018-09-24T01:28:45.228Z,8.07
2018-09-24T01:31:12.552Z,7.20
2018-09-24T01:33:39.908Z,6.40
2018-09-24T01:36:07.224Z,5.73
2018-09-24T01:38:34.540Z,6.27
2018-09-24T01:41:01.860Z,6.37
2018-09-24T01:43:29.196Z,5.70
2018-09-24T01:45:56.501Z,6.23
2018-09-24T01:48:23.844Z,7.30
2018-09-24T01:50:51.170Z,5.87
2018-09-24T01:53:18.479Z,5.70
2018-09-24T01:55:49.581Z,5.53
2018-09-24T01:58:16.900Z,6.57
2018-09-24T02:00:44.216Z,5.93
2018-09-24T02:03:11.563Z,8.40
2018-09-24T02:05:38.896Z,5.77
2018-09-24T02:08:06.219Z,6.47
2018-09-24T02:10:33.536Z,7.37
2018-09-24T02:13:00.850Z,6.70
2018-09-24T02:15:28.217Z,5.13
2018-09-24T02:17:55.531Z,6.67
2018-09-24T02:20:22.882Z,6.43
2018-09-24T02:22:50.218Z,8.67
2018-09-24T02:25:17.534Z,6.83
2018-09-24T02:27:44.879Z,6.80
2018-09-24T02:30:14.088Z,7.63
2018-09-24T02:32:41.457Z,7.57
2018-09-24T02:35:08.929Z,8.70
2018-09-24T02:37:36.240Z,7.43
2018-09-24T02:40:03.709Z,6.87
2018-09-24T02:42:31.091Z,7.57
2018-09-24T02:44:58.475Z,7.37
2018-09-24T02:47:25.797Z,11.03
2018-09-24T02:49:53.119Z,6.60
2018-09-24T02:52:20.427Z,9.17
2018-09-24T02:54:47.805Z,7.50
2018-09-24T02:57:15.134Z,6.77
2018-09-24T02:59:43.854Z,7.40
2018-09-24T03:02:11.214Z,8.57
2018-09-24T03:04:38.528Z,7.67
2018-09-24T03:07:05.867Z,7.27
2018-09-24T03:09:34.144Z,8.60
2018-09-24T03:12:01.476Z,7.10
2018-09-24T03:14:28.861Z,7.60
2018-09-24T03:16:56.325Z,7.07
2018-09-24T03:19:24.020Z,8.50
2018-09-24T03:21:51.348Z,7.50
2018-09-24T03:24:18.696Z,8.30
2018-09-24T03:26:46.004Z,8.43
2018-09-24T03:29:19.666Z,8.30
2018-09-24T03:31:46.976Z,9.27
2018-09-24T03:34:14.306Z,9.17
2018-09-24T03:36:41.631Z,9.10
2018-09-24T03:39:08.972Z,7.97
2018-09-24T03:41:36.310Z,9.10
2018-09-24T03:44:03.630Z,9.63
2018-09-24T03:46:31.009Z,9.87
2018-09-24T03:48:58.311Z,11.13
2018-09-24T03:51:25.863Z,9.07
2018-09-24T03:53:53.215Z,8.13
2018-09-24T03:56:20.517Z,8.30
2018-09-24T03:58:47.861Z,10.37
2018-09-24T04:01:15.170Z,11.57
2018-09-24T04:03:42.482Z,8.47
2018-09-24T04:06:09.812Z,8.33
2018-09-24T04:08:37.147Z,7.87
2018-09-24T04:11:04.452Z,9.20
2018-09-24T04:13:31.789Z,9.90
2018-09-24T04:15:59.103Z,11.63
2018-09-24T04:18:26.477Z,8.47
2018-09-24T04:20:53.804Z,9.60
2018-09-24T04:23:21.123Z,9.33
2018-09-24T04:25:48.452Z,8.87
2018-09-24T04:28:15.783Z,8.83
2018-09-24T04:30:43.116Z,12.33
2018-09-24T04:33:10.436Z,8.70
2018-09-24T04:35:37.765Z,7.17
2018-09-24T04:38:05.129Z,10.90
2018-09-24T04:40:32.453Z,10.30
2018-09-24T04:42:59.778Z,7.27
2018-09-24T04:45:27.282Z,7.03
2018-09-24T04:47:54.590Z,6.70
2018-09-24T04:50:21.945Z,10.40
2018-09-24T04:52:49.325Z,7.10
2018-09-24T04:55:16.667Z,6.00
2018-09-24T04:57:44.011Z,10.27
2018-09-24T05:00:11.327Z,8.93
2018-09-24T05:02:38.676Z,7.07
2018-09-24T05:05:05.999Z,6.73
2018-09-24T05:07:33.356Z,8.07
2018-09-24T05:10:01.120Z,9.30
2018-09-24T05:12:28.406Z,8.97
2018-09-24T05:14:55.777Z,11.20
2018-09-24T05:17:23.107Z,9.93
2018-09-24T05:19:50.446Z,9.10
2018-09-24T05:22:17.786Z,9.00
2018-09-24T05:24:45.107Z,6.43
2018-09-24T05:27:12.455Z,7.83
2018-09-24T05:29:39.775Z,7.90
2018-09-24T05:32:07.219Z,8.63
2018-09-24T05:34:34.607Z,7.93
2018-09-24T05:37:01.933Z,7.50
2018-09-24T05:39:29.257Z,8.53
2018-09-24T05:41:56.567Z,8.07
2018-09-24T05:44:23.894Z,13.10
2018-09-24T05:46:51.269Z,8.60
2018-09-24T05:49:18.608Z,15.40
2018-09-24T05:51:45.919Z,8.17
2018-09-24T05:54:13.306Z,7.80
2018-09-24T05:56:40.603Z,7.43
2018-09-24T05:59:08.106Z,10.17
2018-09-24T06:01:35.424Z,11.67
2018-09-24T06:04:02.899Z,8.07
2018-09-24T06:06:30.334Z,7.00
2018-09-24T06:08:57.743Z,9.13
2018-09-24T06:11:25.083Z,7.53
2018-09-24T06:13:52.424Z,8.73
2018-09-24T06:16:19.744Z,7.93
2018-09-24T06:18:47.083Z,7.83
2018-09-24T06:21:14.411Z,6.63
2018-09-24T06:23:41.760Z,12.97
2018-09-24T06:26:09.332Z,10.60
2018-09-24T06:28:36.659Z,7.37
2018-09-24T06:31:04.008Z,7.47
2018-09-24T06:33:31.445Z,8.77
2018-09-24T06:35:58.798Z,9.70
2018-09-24T06:38:26.751Z,6.57
2018-09-24T06:40:54.067Z,9.60
2018-09-24T06:43:22.715Z,8.00
2018-09-24T06:45:50.271Z,7.90
2018-09-24T06:48:21.591Z,6.83
2018-09-24T06:50:48.919Z,10.73
2018-09-24T06:53:16.259Z,6.83
2018-09-24T06:55:43.663Z,6.10
2018-09-24T06:58:10.984Z,7.37
2018-09-24T07:00:38.303Z,9.80
2018-09-24T07:03:05.844Z,7.00
2018-09-24T07:05:33.246Z,7.07
2018-09-24T07:08:00.551Z,7.23
2018-09-24T07:10:27.863Z,9.13
2018-09-24T07:12:55.176Z,5.97
2018-09-24T07:15:22.506Z,8.03
2018-09-24T07:17:49.832Z,11.53
2018-09-24T07:20:17.179Z,5.50
2018-09-24T07:22:44.522Z,11.00
2018-09-24T07:25:11.851Z,8.20
2018-09-24T07:27:39.193Z,8.20
2018-09-24T07:30:06.505Z,7.93
2018-09-24T07:32:33.847Z,7.90
2018-09-24T07:35:01.184Z,5.07
2018-09-24T07:37:29.170Z,4.87
2018-09-24T07:39:56.532Z,6.90
2018-09-24T07:42:23.860Z,6.93
2018-09-24T07:44:51.192Z,4.97
2018-09-24T07:47:18.516Z,6.10
2018-09-24T07:49:45.864Z,3.93
2018-09-24T07:52:13.200Z,5.13
2018-09-24T07:54:40.535Z,4.97
2018-09-24T07:57:07.877Z,7.87
2018-09-24T07:59:35.215Z,7.97
2018-09-24T08:02:02.532Z,7.43
2018-09-24T08:04:29.871Z,6.43
2018-09-24T08:06:57.223Z,4.40
2018-09-24T08:09:24.532Z,7.00
2018-09-24T08:11:51.867Z,6.07
2018-09-24T08:14:19.249Z,9.17
2018-09-24T08:16:46.572Z,3.83
2018-09-24T08:19:13.935Z,3.50
2018-09-24T08:21:41.272Z,2.40
2018-09-24T08:24:08.604Z,8.30
2018-09-24T08:26:35.923Z,4.87
2018-09-24T08:29:03.256Z,5.43
2018-09-24T08:31:30.592Z,6.73
2018-09-24T08:33:57.937Z,3.60
2018-09-24T08:36:25.275Z,5.77
2018-09-24T08:38:52.607Z,7.40
2018-09-24T08:41:19.971Z,3.90
2018-09-24T08:43:47.277Z,4.70
2018-09-24T08:46:14.624Z,8.43
2018-09-24T08:48:41.923Z,3.83
2018-09-24T08:51:09.280Z,5.83
2018-09-24T08:53:36.604Z,6.73
2018-09-24T08:56:03.937Z,4.30
2018-09-24T08:58:31.240Z,4.77
2018-09-24T09:00:58.567Z,3.70
2018-09-24T09:03:25.927Z,3.93
2018-09-24T09:05:53.271Z,3.70
2018-09-24T09:08:20.699Z,5.13
2018-09-24T09:10:48.007Z,3.87
2018-09-24T09:13:15.323Z,5.70
2018-09-24T09:15:42.664Z,5.83
2018-09-24T09:18:10.043Z,3.77
2018-09-24T09:20:37.395Z,3.60
2018-09-24T09:23:04.854Z,2.47
2018-09-24T09:25:32.261Z,3.13
2018-09-24T09:27:59.628Z,4.40
2018-09-24T09:30:26.946Z,4.93
2018-09-24T09:32:54.271Z,6.10
2018-09-24T09:35:21.657Z,3.13
2018-09-24T09:37:48.947Z,2.37
2018-09-24T09:40:16.268Z,2.60
2018-09-24T09:42:43.663Z,5.73
2018-09-24T09:45:10.978Z,3.97
2018-09-24T09:47:38.297Z,2.50
2018-09-24T09:50:05.781Z,2.90
2018-09-24T09:52:33.140Z,4.93
2018-09-24T09:55:00.487Z,2.63
2018-09-24T09:57:27.831Z,3.20
2018-09-24T09:59:55.180Z,4.77
2018-09-24T10:02:22.491Z,3.40
2018-09-24T10:04:49.882Z,2.60
2018-09-24T10:07:17.160Z,5.50
2018-09-24T10:09:44.497Z,4.67
2018-09-24T10:12:11.799Z,4.73
2018-09-24T10:14:39.229Z,6.47
2018-09-24T10:17:06.562Z,3.43
2018-09-24T10:19:33.883Z,4.83
2018-09-24T10:22:01.270Z,2.67
2018-09-24T10:24:28.643Z,2.17
2018-09-24T10:26:55.988Z,5.80
2018-09-24T10:29:23.294Z,3.13
2018-09-24T10:31:50.637Z,6.87
2018-09-24T10:34:17.963Z,4.80
2018-09-24T10:36:45.380Z,9.63
2018-09-24T10:39:12.732Z,1.47
2018-09-24T10:41:40.445Z,3.70
2018-09-24T10:44:07.790Z,3.03
2018-09-24T10:46:35.175Z,2.90
2018-09-24T10:49:02.489Z,3.43
2018-09-24T10:51:30.394Z,4.73
2018-09-24T10:53:57.732Z,4.30
2018-09-24T10:56:25.040Z,4.17
2018-09-24T10:58:52.387Z,2.80
2018-09-24T11:01:19.727Z,3.73
2018-09-24T11:03:47.043Z,2.67
2018-09-24T11:06:14.393Z,3.50
2018-09-24T11:08:41.724Z,6.20
2018-09-24T11:11:09.239Z,3.17
2018-09-24T11:13:36.591Z,1.77
2018-09-24T11:16:04.075Z,2.10
2018-09-24T11:18:31.231Z,3.47
2018-09-24T11:20:58.581Z,2.73
2018-09-24T11:23:25.939Z,4.00
2018-09-24T11:25:53.248Z,3.37
2018-09-24T11:28:20.983Z,4.63
2018-09-24T11:30:48.296Z,3.73
2018-09-24T11:33:15.614Z,1.87
2018-09-24T11:35:42.948Z,4.33
2018-09-24T11:38:10.385Z,3.33
2018-09-24T11:40:37.699Z,3.33
2018-09-24T11:43:05.036Z,3.40
2018-09-24T11:45:32.366Z,3.87
2018-09-24T11:47:59.759Z,2.80
2018-09-24T11:50:27.071Z,1.83
2018-09-24T11:52:54.402Z,2.90
2018-09-24T11:55:21.747Z,6.87
2018-09-24T11:57:49.102Z,2.17
2018-09-24T12:00:16.417Z,4.57
2018-09-24T12:02:43.752Z,3.03
2018-09-24T12:05:11.088Z,4.23
2018-09-24T12:07:38.423Z,5.70
2018-09-24T12:10:05.820Z,2.97
2018-09-24T12:12:33.733Z,2.83
2018-09-24T12:15:01.066Z,4.30
2018-09-24T12:17:28.406Z,4.60
2018-09-24T12:19:55.728Z,4.17
2018-09-24T12:22:23.066Z,4.63
2018-09-24T12:24:50.407Z,1.70
2018-09-24T12:27:17.707Z,3.70
2018-09-24T12:29:45.043Z,3.07
2018-09-24T12:32:12.470Z,2.50
2018-09-24T12:34:39.817Z,3.87
2018-09-24T12:37:07.218Z,3.67
2018-09-24T12:39:34.560Z,2.30
2018-09-24T12:42:01.911Z,3.30
2018-09-24T12:44:29.360Z,3.53
2018-09-24T12:46:56.725Z,2.23
2018-09-24T12:49:24.060Z,3.70
2018-09-24T12:51:51.432Z,1.33
2018-09-24T12:54:18.766Z,1.70
2018-09-24T12:56:46.075Z,1.37
2018-09-24T12:59:13.423Z,4.23
2018-09-24T13:01:40.761Z,4.93
2018-09-24T13:04:08.099Z,2.13
2018-09-24T13:06:35.442Z,1.30
2018-09-24T13:09:02.756Z,3.60
2018-09-24T13:11:30.087Z,2.10
2018-09-24T13:13:57.473Z,3.30
2018-09-24T13:16:24.864Z,2.33
2018-09-24T13:18:52.219Z,3.30
2018-09-24T13:21:19.633Z,1.27
2018-09-24T13:23:46.935Z,1.57
2018-09-24T13:26:14.267Z,3.07
2018-09-24T13:28:41.643Z,3.50
2018-09-24T13:31:08.951Z,2.93
2018-09-24T13:33:36.279Z,2.50
2018-09-24T13:36:03.613Z,6.77
2018-09-24T13:38:30.987Z,2.57
2018-09-24T13:40:58.324Z,2.27
2018-09-24T13:43:25.759Z,4.43
2018-09-24T13:45:53.092Z,2.93
2018-09-24T13:48:20.413Z,2.67
2018-09-24T13:50:47.829Z,2.53
2018-09-24T13:53:15.185Z,2.43
2018-09-24T13:55:42.454Z,1.90
2018-09-24T13:58:09.792Z,1.47
2018-09-24T14:00:37.108Z,2.30
2018-09-24T14:03:04.709Z,1.80
2018-09-24T14:05:32.059Z,1.83
2018-09-24T14:07:59.372Z,1.33
2018-09-24T14:10:26.752Z,2.53
2018-09-24T14:12:54.079Z,1.23
2018-09-24T14:15:21.564Z,3.03
2018-09-24T14:17:49.076Z,2.30
2018-09-24T14:20:16.421Z,4.63
2018-09-24T14:22:43.723Z,1.30
2018-09-24T14:25:11.065Z,2.70
2018-09-24T14:27:38.994Z,1.40
2018-09-24T14:30:06.946Z,2.43
2018-09-24T14:32:34.247Z,2.50
2018-09-24T14:35:01.597Z,1.93
2018-09-24T14:37:28.960Z,2.43
2018-09-24T14:39:56.301Z,1.20
2018-09-24T14:42:23.637Z,2.20
2018-09-24T14:44:50.994Z,1.47
2018-09-24T14:47:18.312Z,1.37
2018-09-24T14:49:45.644Z,2.90
2018-09-24T14:52:12.959Z,5.30
2018-09-24T14:54:40.263Z,0.93
2018-09-24T14:57:07.642Z,1.10
2018-09-24T14:59:34.930Z,1.20
2018-09-24T15:02:02.309Z,1.23
2018-09-24T15:04:29.647Z,1.50
2018-09-24T15:06:56.989Z,2.07
2018-09-24T15:09:24.326Z,2.80
2018-09-24T15:11:51.656Z,1.63
2018-09-24T15:14:19.004Z,1.60
2018-09-24T15:16:46.352Z,3.67
2018-09-24T15:19:13.666Z,1.60
2018-09-24T15:21:41.093Z,1.70
2018-09-24T15:24:08.415Z,1.90
2018-09-24T15:26:35.802Z,1.83
2018-09-24T15:29:03.167Z,3.40
2018-09-24T15:31:30.488Z,1.50
2018-09-24T15:33:57.809Z,4.67
2018-09-24T15:36:25.141Z,2.00
2018-09-24T15:38:52.471Z,2.43
2018-09-24T15:41:19.819Z,2.33
2018-09-24T15:43:47.140Z,2.20
2018-09-24T15:46:14.473Z,2.20
2018-09-24T15:48:41.795Z,1.90
2018-09-24T15:51:09.156Z,2.93
2018-09-24T15:53:36.627Z,2.80
2018-09-24T15:56:03.915Z,2.20
2018-09-24T15:58:31.303Z,5.40
2018-09-24T16:00:58.611Z,2.83
2018-09-24T16:03:26.096Z,1.00
2018-09-24T16:05:53.403Z,1.80
2018-09-24T16:08:20.737Z,1.40
2018-09-24T16:10:48.056Z,1.67
2018-09-24T16:13:15.399Z,2.70
2018-09-24T16:15:42.719Z,1.77
2018-09-24T16:18:10.036Z,1.40
2018-09-24T16:20:37.355Z,3.67
2018-09-24T16:23:04.693Z,1.20
2018-09-24T16:25:32.016Z,1.70
2018-09-24T16:27:59.384Z,1.50
2018-09-24T16:30:26.745Z,4.53
2018-09-24T16:32:54.111Z,1.27
2018-09-24T16:35:21.438Z,2.57
2018-09-24T16:37:48.787Z,1.63
2018-09-24T16:40:16.155Z,2.40
2018-09-24T16:42:43.491Z,1.30
2018-09-24T16:45:10.808Z,1.17
2018-09-24T16:47:38.167Z,1.80
2018-09-24T16:50:05.860Z,1.63
2018-09-24T16:52:33.247Z,2.53
2018-09-24T16:55:00.595Z,1.53
2018-09-24T16:57:27.918Z,4.87
2018-09-24T16:59:55.273Z,2.17
2018-09-24T17:02:22.605Z,1.77
2018-09-24T17:04:49.978Z,2.43
2018-09-24T17:07:17.282Z,2.10
2018-09-24T17:09:44.612Z,1.37
2018-09-24T17:12:12.157Z,1.50
2018-09-24T17:14:39.437Z,2.03
2018-09-24T17:17:06.798Z,1.07
2018-09-24T17:19:34.080Z,1.40
2018-09-24T17:22:01.416Z,1.50
2018-09-24T17:24:28.817Z,1.57
2018-09-24T17:26:56.118Z,1.27
2018-09-24T17:29:23.473Z,2.33
2018-09-24T17:31:50.820Z,4.00
2018-09-24T17:34:18.187Z,1.63
2018-09-24T17:36:45.533Z,2.67
2018-09-24T17:39:12.859Z,8.70
2018-09-24T17:41:40.208Z,1.90
2018-09-24T17:44:07.570Z,2.70
2018-09-24T17:46:34.928Z,2.03
2018-09-24T17:49:02.247Z,3.33
2018-09-24T17:51:29.578Z,1.63
2018-09-24T17:53:56.889Z,1.77
2018-09-24T17:56:24.342Z,2.97
2018-09-24T17:58:51.742Z,1.73
2018-09-24T18:01:19.073Z,2.37
2018-09-24T18:03:46.450Z,2.57
2018-09-24T18:06:13.775Z,2.20
2018-09-24T18:08:41.127Z,4.23
2018-09-24T18:11:08.466Z,1.87
2018-09-24T18:13:35.812Z,2.63
2018-09-24T18:16:03.164Z,1.60
2018-09-24T18:18:30.480Z,2.00
2018-09-24T18:20:58.473Z,1.70
2018-09-24T18:23:26.247Z,1.70
2018-09-24T18:25:53.680Z,3.47
2018-09-24T18:28:21.029Z,2.30
2018-09-24T18:30:48.349Z,2.27
2018-09-24T18:33:16.085Z,1.40
2018-09-24T18:35:43.457Z,2.73
2018-09-24T18:38:10.809Z,2.47
2018-09-24T18:40:38.169Z,1.60
2018-09-24T18:43:05.650Z,4.70
2018-09-24T18:45:33.015Z,1.97
2018-09-24T18:48:00.351Z,2.50
2018-09-24T18:50:29.219Z,2.43
2018-09-24T18:52:56.565Z,4.33
2018-09-24T18:55:24.177Z,6.00
2018-09-24T18:57:51.506Z,3.77
2018-09-24T19:00:18.860Z,2.67
2018-09-24T19:02:46.193Z,2.03
2018-09-24T19:05:13.570Z,2.03
2018-09-24T19:07:40.903Z,1.83
2018-09-24T19:10:08.231Z,3.50
2018-09-24T19:12:35.559Z,4.20
2018-09-24T19:15:02.898Z,4.63
2018-09-24T19:17:30.207Z,1.80
2018-09-24T19:19:57.544Z,2.00
2018-09-24T19:22:24.927Z,3.43
2018-09-24T19:24:52.291Z,1.63
2018-09-24T19:27:19.675Z,2.43
2018-09-24T19:29:46.930Z,2.47
2018-09-24T19:32:14.363Z,3.97
2018-09-24T19:34:41.675Z,3.27
2018-09-24T19:37:09.266Z,3.27
2018-09-24T19:39:36.351Z,1.93
2018-09-24T19:42:03.810Z,1.40
2018-09-24T19:44:31.159Z,3.63
2018-09-24T19:46:58.465Z,2.03
2018-09-24T19:49:25.783Z,6.93
2018-09-24T19:51:53.563Z,1.80
2018-09-24T19:54:20.903Z,1.97
2018-09-24T19:56:48.238Z,2.30
2018-09-24T19:59:15.588Z,1.43
2018-09-24T20:01:42.959Z,3.93
2018-09-24T20:04:10.218Z,2.37
2018-09-24T20:06:37.540Z,2.80
2018-09-24T20:09:07.369Z,2.40
2018-09-24T20:11:34.694Z,3.10
2018-09-24T20:14:02.007Z,2.83
2018-09-24T20:16:29.352Z,2.57
2018-09-24T20:18:56.695Z,2.00
2018-09-24T20:21:23.988Z,4.10
2018-09-24T20:23:51.323Z,2.50
2018-09-24T20:26:18.680Z,3.90
2018-09-24T20:28:46.015Z,3.03
2018-09-24T20:31:13.366Z,2.30
2018-09-24T20:33:40.720Z,2.70
2018-09-24T20:36:08.047Z,3.57
2018-09-24T20:38:35.370Z,4.07
2018-09-24T20:41:02.695Z,2.20
2018-09-24T20:43:30.039Z,3.40
2018-09-24T20:45:57.387Z,2.20
2018-09-24T20:48:25.361Z,1.97
2018-09-24T20:50:52.671Z,3.30
2018-09-24T20:53:20.011Z,2.37
2018-09-24T20:55:47.333Z,2.97
2018-09-24T20:58:14.690Z,2.90
2018-09-24T21:00:42.023Z,2.47
2018-09-24T21:03:09.347Z,4.20
2018-09-24T21:05:36.688Z,2.63
2018-09-24T21:08:04.025Z,4.77
2018-09-24T21:10:31.376Z,2.70
2018-09-24T21:12:58.747Z,3.63
2018-09-24T21:15:26.068Z,3.20
2018-09-24T21:17:53.415Z,3.13
2018-09-24T21:20:20.737Z,4.63
2018-09-24T21:22:48.061Z,3.23
2018-09-24T21:25:15.471Z,4.57
2018-09-24T21:27:42.779Z,3.20
2018-09-24T21:30:10.122Z,4.67
2018-09-24T21:32:37.432Z,5.33
2018-09-24T21:35:04.790Z,2.03
2018-09-24T21:37:32.102Z,5.23
2018-09-24T21:39:59.495Z,4.00
2018-09-24T21:42:26.810Z,5.70
2018-09-24T21:44:54.249Z,5.07
2018-09-24T21:47:21.500Z,5.60
2018-09-24T21:49:48.844Z,7.40
2018-09-24T21:52:16.143Z,5.60
2018-09-24T21:54:43.450Z,3.60
2018-09-24T21:57:10.825Z,4.67
2018-09-24T21:59:38.124Z,4.10
2018-09-24T22:02:05.695Z,1.90
2018-09-24T22:04:33.222Z,3.47
2018-09-24T22:07:00.651Z,3.93
2018-09-24T22:09:27.967Z,5.30
2018-09-24T22:11:55.391Z,3.07
2018-09-24T22:14:22.698Z,2.87
2018-09-24T22:16:50.083Z,3.83
2018-09-24T22:19:17.380Z,3.53
2018-09-24T22:21:44.714Z,4.80
2018-09-24T22:24:12.067Z,3.00
2018-09-24T22:26:39.515Z,3.10
2018-09-24T22:29:06.960Z,3.53
2018-09-24T22:31:34.365Z,2.47
2018-09-24T22:34:01.713Z,3.30
2018-09-24T22:36:29.046Z,4.77
2018-09-24T22:39:05.711Z,3.63
2018-09-24T22:41:33.131Z,2.67
2018-09-24T22:44:00.450Z,4.50
2018-09-24T22:46:27.837Z,2.30
2018-09-24T22:48:55.104Z,6.03
2018-09-24T22:51:22.436Z,2.80
2018-09-24T22:53:49.755Z,4.13
2018-09-24T22:56:17.092Z,4.80
2018-09-24T22:58:44.408Z,3.77
2018-09-24T23:01:11.739Z,3.43
2018-09-24T23:03:39.045Z,2.23
2018-09-24T23:06:06.372Z,2.53
2018-09-24T23:08:33.690Z,5.50
2018-09-24T23:11:01.048Z,3.40
2018-09-24T23:13:28.374Z,2.40
2018-09-24T23:15:55.687Z,2.47
2018-09-24T23:18:23.007Z,3.27
2018-09-24T23:20:50.363Z,4.70
2018-09-24T23:23:17.668Z,2.70
2018-09-24T23:25:45.572Z,2.13
2018-09-24T23:28:12.904Z,3.27
2018-09-24T23:30:40.213Z,4.20
2018-09-24T23:33:07.588Z,4.33
2018-09-24T23:35:34.927Z,1.70
2018-09-24T23:38:02.277Z,2.87
2018-09-24T23:40:29.617Z,1.80
2018-09-24T23:42:56.943Z,3.83
2018-09-24T23:45:24.298Z,2.07
2018-09-24T23:47:51.612Z,1.77
2018-09-24T23:50:18.966Z,6.00
2018-09-24T23:52:46.281Z,5.90
2018-09-24T23:55:13.617Z,8.10
2018-09-24T23:57:40.966Z,3.00
